createdAt,value
2022-10-26T00:01:21.941Z,8.76
2022-10-26T00:03:51.422Z,8.73
2022-10-26T00:06:20.373Z,8.73
2022-10-26T00:08:49.879Z,8.73
2022-10-26T00:11:18.628Z,8.74
2022-10-26T00:13:47.355Z,8.77
2022-10-26T00:16:17.127Z,8.76
2022-10-26T00:18:45.018Z,8.76
2022-10-26T00:21:14.614Z,8.78
2022-10-26T00:23:42.512Z,8.82
2022-10-26T00:26:10.668Z,8.89
2022-10-26T00:28:38.677Z,8.96
2022-10-26T00:31:08.061Z,9.07
2022-10-26T00:33:36.177Z,9.10
2022-10-26T00:36:04.147Z,9.16
2022-10-26T00:38:33.409Z,9.16
2022-10-26T00:41:01.506Z,9.24
2022-10-26T00:43:36.302Z,9.29
2022-10-26T00:46:07.251Z,9.29
2022-10-26T00:48:38.228Z,9.32
2022-10-26T00:51:09.596Z,9.35
2022-10-26T00:53:40.120Z,9.38
2022-10-26T00:56:08.483Z,9.45
2022-10-26T00:58:36.901Z,9.49
2022-10-26T01:01:04.888Z,9.52
2022-10-26T01:03:33.983Z,9.55
2022-10-26T01:06:03.813Z,9.62
2022-10-26T01:08:32.046Z,9.62
2022-10-26T01:11:01.609Z,9.64
2022-10-26T01:13:31.978Z,9.66
2022-10-26T01:16:05.972Z,9.68
2022-10-26T01:18:40.574Z,9.68
2022-10-26T01:21:26.276Z,9.69
2022-10-26T01:24:04.325Z,9.77
2022-10-26T01:26:47.633Z,9.78
2022-10-26T01:29:25.452Z,9.83
2022-10-26T01:31:57.924Z,9.86
2022-10-26T01:34:28.997Z,9.82
2022-10-26T01:36:58.852Z,9.88
2022-10-26T01:39:30.927Z,9.98
2022-10-26T01:42:00.749Z,9.99
2022-10-26T01:44:31.989Z,10.02
2022-10-26T01:47:02.572Z,10.04
2022-10-26T01:49:33.593Z,10.07
2022-10-26T01:52:01.570Z,10.11
2022-10-26T01:54:29.657Z,10.19
2022-10-26T01:57:02.206Z,10.25
2022-10-26T01:59:35.309Z,10.27
2022-10-26T02:02:24.339Z,10.26
2022-10-26T02:05:02.587Z,10.31
2022-10-26T02:07:34.694Z,10.28
2022-10-26T02:10:07.680Z,10.26
2022-10-26T02:12:39.678Z,10.31
2022-10-26T02:15:09.804Z,10.28
2022-10-26T02:17:43.973Z,10.30
2022-10-26T02:20:18.208Z,10.28
2022-10-26T02:22:47.665Z,10.30
2022-10-26T02:25:18.555Z,10.35
2022-10-26T02:27:50.544Z,10.33
2022-10-26T02:30:19.138Z,10.28
2022-10-26T02:32:49.319Z,10.28
2022-10-26T02:35:21.998Z,10.30
2022-10-26T02:37:52.028Z,10.29
2022-10-26T02:40:21.825Z,10.30
2022-10-26T02:42:51.840Z,10.28
2022-10-26T02:45:22.335Z,10.32
2022-10-26T02:47:50.796Z,10.25
2022-10-26T02:50:21.881Z,10.25
2022-10-26T02:52:55.674Z,10.30
2022-10-26T02:55:26.114Z,10.27
2022-10-26T02:57:56.897Z,10.24
2022-10-26T03:00:24.920Z,10.25
2022-10-26T03:02:55.087Z,10.23
2022-10-26T03:05:25.894Z,10.35
2022-10-26T03:07:54.125Z,10.28
2022-10-26T03:10:22.454Z,10.28
2022-10-26T03:12:50.852Z,10.36
2022-10-26T03:15:18.914Z,10.36
2022-10-26T03:17:47.005Z,10.32
2022-10-26T03:20:15.036Z,10.33
2022-10-26T03:22:44.209Z,10.35
2022-10-26T03:25:12.301Z,10.33
2022-10-26T03:27:40.106Z,10.36
2022-10-26T03:30:08.693Z,10.36
2022-10-26T03:32:36.517Z,10.35
2022-10-26T03:35:04.529Z,10.37
2022-10-26T03:37:32.582Z,10.38
2022-10-26T03:40:01.867Z,10.43
2022-10-26T03:42:29.818Z,10.45
2022-10-26T03:44:57.711Z,10.46
2022-10-26T03:47:25.505Z,10.51
2022-10-26T03:49:53.612Z,10.55
2022-10-26T03:52:21.552Z,10.56
2022-10-26T03:54:49.479Z,10.65
2022-10-26T03:57:18.743Z,10.70
2022-10-26T03:59:46.785Z,10.69
2022-10-26T04:02:15.190Z,10.70
2022-10-26T04:04:43.182Z,10.67
2022-10-26T04:07:11.766Z,10.70
2022-10-26T04:09:42.001Z,10.64
2022-10-26T04:12:09.834Z,10.63
2022-10-26T04:14:39.157Z,10.62
2022-10-26T04:17:07.034Z,10.58
2022-10-26T04:19:34.927Z,10.62
2022-10-26T04:22:02.886Z,10.68
2022-10-26T04:24:30.741Z,10.62
2022-10-26T04:26:58.836Z,10.51
2022-10-26T04:29:26.706Z,10.53
2022-10-26T04:31:56.300Z,10.52
2022-10-26T04:34:24.469Z,10.60
2022-10-26T04:36:52.413Z,10.60
2022-10-26T04:39:20.279Z,10.61
2022-10-26T04:41:48.191Z,10.68
2022-10-26T04:44:18.573Z,10.72
2022-10-26T04:46:46.547Z,10.76
2022-10-26T04:49:15.810Z,10.76
2022-10-26T04:51:43.670Z,10.72
2022-10-26T04:54:11.616Z,10.64
2022-10-26T04:56:39.598Z,10.57
2022-10-26T04:59:07.493Z,10.50
2022-10-26T05:01:35.516Z,10.43
2022-10-26T05:04:03.617Z,10.39
2022-10-26T05:06:32.956Z,10.42
2022-10-26T05:09:00.945Z,10.45
2022-10-26T05:11:28.866Z,10.50
2022-10-26T05:13:56.678Z,10.49
2022-10-26T05:16:24.526Z,10.53
2022-10-26T05:18:53.368Z,10.56
2022-10-26T05:21:21.665Z,10.56
2022-10-26T05:23:55.201Z,10.56
2022-10-26T05:26:24.151Z,10.54
2022-10-26T05:28:52.608Z,10.53
2022-10-26T05:31:20.747Z,10.52
2022-10-26T05:33:50.254Z,10.54
2022-10-26T05:36:21.608Z,10.46
2022-10-26T05:38:49.722Z,10.45
2022-10-26T05:41:18.927Z,10.48
2022-10-26T05:43:48.159Z,10.48
2022-10-26T05:46:16.315Z,10.49
2022-10-26T05:48:46.928Z,10.51
2022-10-26T05:51:28.143Z,10.56
2022-10-26T05:53:58.345Z,10.63
2022-10-26T05:56:36.424Z,10.60
2022-10-26T05:59:04.907Z,10.60
2022-10-26T06:01:38.243Z,10.63
2022-10-26T06:04:18.603Z,10.66
2022-10-26T06:06:50.806Z,10.69
2022-10-26T06:09:21.240Z,10.72
2022-10-26T06:11:51.042Z,10.66
2022-10-26T06:14:19.665Z,10.57
2022-10-26T06:16:58.186Z,10.51
2022-10-26T06:19:33.210Z,10.48
2022-10-26T06:22:09.204Z,10.45
2022-10-26T06:24:42.042Z,10.51
2022-10-26T06:27:19.522Z,10.56
2022-10-26T06:29:53.328Z,10.65
2022-10-26T06:32:24.119Z,10.77
2022-10-26T06:34:53.608Z,10.91
2022-10-26T06:37:22.571Z,11.04
2022-10-26T06:39:53.977Z,11.22
2022-10-26T06:42:24.588Z,11.30
2022-10-26T06:44:52.842Z,11.36
2022-10-26T06:47:23.788Z,11.43
2022-10-26T06:49:58.468Z,11.46
2022-10-26T06:52:30.630Z,11.52
2022-10-26T06:54:59.215Z,11.60
2022-10-26T06:57:29.765Z,11.66
2022-10-26T06:59:58.607Z,11.74
2022-10-26T07:02:29.005Z,11.92
2022-10-26T07:04:57.977Z,11.98
2022-10-26T07:07:31.087Z,12.07
2022-10-26T07:10:04.346Z,12.15
2022-10-26T07:12:38.711Z,12.23
2022-10-26T07:17:43.374Z,12.45
2022-10-26T07:20:11.986Z,12.53
2022-10-26T07:22:40.128Z,12.61
2022-10-26T07:25:08.995Z,12.71
2022-10-26T07:27:38.454Z,12.81
2022-10-26T07:30:09.645Z,12.93
2022-10-26T07:32:38.021Z,13.03
2022-10-26T07:35:06.361Z,13.14
2022-10-26T07:37:34.869Z,13.27
2022-10-26T07:40:06.450Z,13.41
2022-10-26T07:42:36.620Z,13.59
2022-10-26T07:45:07.043Z,13.77
2022-10-26T07:47:35.039Z,14.03
2022-10-26T07:50:03.426Z,14.33
2022-10-26T07:52:31.387Z,14.62
2022-10-26T07:54:59.552Z,14.97
2022-10-26T07:57:27.584Z,15.32
2022-10-26T07:59:55.896Z,15.66
2022-10-26T08:02:25.137Z,16.17
2022-10-26T08:04:52.957Z,16.84
2022-10-26T08:07:21.642Z,18.84
2022-10-26T08:09:49.575Z,22.75
2022-10-26T08:12:18.786Z,25.95
2022-10-26T08:14:47.051Z,28.17
2022-10-26T08:17:15.590Z,29.39
2022-10-26T08:19:44.998Z,30.99
2022-10-26T08:24:46.887Z,32.31
2022-10-26T08:27:15.593Z,30.17
2022-10-26T08:29:52.210Z,28.80
2022-10-26T08:32:20.135Z,29.33
2022-10-26T08:34:49.464Z,30.99
2022-10-26T08:37:17.539Z,31.05
2022-10-26T08:39:48.105Z,30.94
2022-10-26T08:42:20.786Z,30.26
2022-10-26T08:44:50.110Z,30.68
2022-10-26T08:47:20.640Z,31.39
2022-10-26T08:49:53.918Z,31.40
2022-10-26T08:52:25.283Z,31.17
2022-10-26T08:54:55.211Z,31.63
2022-10-26T08:57:26.560Z,31.00
2022-10-26T08:59:57.565Z,31.86
2022-10-26T09:02:26.124Z,33.23
2022-10-26T09:04:56.103Z,33.29
2022-10-26T09:07:38.871Z,34.35
2022-10-26T09:10:14.237Z,32.79
2022-10-26T09:12:47.270Z,32.23
2022-10-26T09:15:21.688Z,32.13
2022-10-26T09:17:57.988Z,31.16
2022-10-26T09:20:42.567Z,31.78
2022-10-26T09:23:16.368Z,32.23
2022-10-26T09:25:46.114Z,30.99
2022-10-26T09:28:17.155Z,30.88
2022-10-26T09:30:45.614Z,31.51
2022-10-26T09:33:16.540Z,30.98
2022-10-26T09:35:49.838Z,32.00
2022-10-26T09:38:21.684Z,30.46
2022-10-26T09:40:54.183Z,33.12
2022-10-26T09:43:26.205Z,33.12
2022-10-26T09:45:54.766Z,33.43
2022-10-26T09:48:26.512Z,31.83
2022-10-26T09:51:01.999Z,31.97
2022-10-26T09:53:32.706Z,34.22
2022-10-26T09:56:03.279Z,36.62
2022-10-26T09:58:32.651Z,36.06
2022-10-26T10:01:02.903Z,37.01
2022-10-26T10:03:31.916Z,36.06
2022-10-26T10:09:11.279Z,34.20
2022-10-26T10:11:40.289Z,32.57
2022-10-26T10:14:09.887Z,31.91
2022-10-26T10:16:37.830Z,33.16
2022-10-26T10:19:05.695Z,33.90
2022-10-26T10:21:37.786Z,35.45
2022-10-26T10:24:22.863Z,32.39
2022-10-26T10:26:58.739Z,33.15
2022-10-26T10:29:27.269Z,31.40
2022-10-26T10:31:58.769Z,30.63
2022-10-26T10:34:27.175Z,30.66
2022-10-26T10:36:55.687Z,29.92
2022-10-26T10:39:47.517Z,31.14
2022-10-26T10:42:19.613Z,29.16
2022-10-26T10:44:52.595Z,31.20
2022-10-26T10:47:23.480Z,31.56
2022-10-26T10:49:52.981Z,30.07
2022-10-26T10:52:24.698Z,31.34
2022-10-26T10:54:55.008Z,32.40
2022-10-26T10:57:29.093Z,32.95
2022-10-26T11:00:02.236Z,32.48
2022-10-26T11:02:43.546Z,31.76
2022-10-26T11:05:23.483Z,33.09
2022-10-26T11:07:56.615Z,33.38
2022-10-26T11:10:27.378Z,34.25
2022-10-26T11:13:00.167Z,32.46
2022-10-26T11:15:30.003Z,31.97
2022-10-26T11:18:04.060Z,31.55
2022-10-26T11:20:33.966Z,32.67
2022-10-26T11:25:37.915Z,33.68
2022-10-26T11:28:12.907Z,35.19
2022-10-26T11:30:44.506Z,34.20
2022-10-26T11:33:16.541Z,32.48
2022-10-26T11:35:46.699Z,29.74
2022-10-26T11:38:23.937Z,30.90
2022-10-26T11:41:05.306Z,31.09
2022-10-26T11:43:38.982Z,31.14
2022-10-26T11:46:12.742Z,32.81
2022-10-26T11:48:46.074Z,31.10
2022-10-26T11:51:19.444Z,30.25
2022-10-26T11:53:48.870Z,30.61
2022-10-26T11:56:22.755Z,29.90
2022-10-26T11:58:52.340Z,29.90
2022-10-26T12:01:20.774Z,29.69
2022-10-26T12:03:50.328Z,28.96
2022-10-26T12:06:20.796Z,29.53
2022-10-26T12:08:49.860Z,29.54
2022-10-26T12:11:26.496Z,29.99
2022-10-26T12:13:59.559Z,29.60
2022-10-26T12:16:34.558Z,30.20
2022-10-26T12:19:16.932Z,29.83
2022-10-26T12:21:45.245Z,28.94
2022-10-26T12:24:30.650Z,29.98
2022-10-26T12:26:59.144Z,29.94
2022-10-26T12:29:37.164Z,29.44
2022-10-26T12:32:06.710Z,29.07
2022-10-26T12:34:54.818Z,28.83
2022-10-26T12:37:25.046Z,26.67
2022-10-26T12:39:52.928Z,25.67
2022-10-26T12:42:30.703Z,24.90
2022-10-26T12:45:08.836Z,25.58
2022-10-26T12:48:10.561Z,27.47
2022-10-26T12:50:43.786Z,28.84
2022-10-26T12:53:13.586Z,27.57
2022-10-26T12:56:04.170Z,29.61
2022-10-26T12:58:47.193Z,31.45
2022-10-26T13:01:27.494Z,31.88
2022-10-26T13:04:02.895Z,30.21
2022-10-26T13:06:41.366Z,28.85
2022-10-26T13:09:15.230Z,28.53
2022-10-26T13:11:50.536Z,28.13
2022-10-26T13:14:22.861Z,26.15
2022-10-26T13:16:52.514Z,25.47
2022-10-26T13:19:27.454Z,26.54
2022-10-26T13:21:59.079Z,26.63
2022-10-26T13:24:29.433Z,25.85
2022-10-26T13:27:16.131Z,25.52
2022-10-26T13:29:59.116Z,24.72
2022-10-26T13:32:28.657Z,25.02
2022-10-26T13:34:57.839Z,25.14
2022-10-26T13:37:28.041Z,25.91
2022-10-26T13:39:56.507Z,26.13
2022-10-26T13:42:26.101Z,24.92
2022-10-26T13:44:55.343Z,25.20
2022-10-26T13:47:26.799Z,25.61
2022-10-26T13:49:59.920Z,26.26
2022-10-26T13:52:30.199Z,25.28
2022-10-26T13:55:00.584Z,25.18
2022-10-26T13:57:31.221Z,26.72
2022-10-26T14:00:03.052Z,26.88
2022-10-26T14:02:32.591Z,26.89
2022-10-26T14:05:02.571Z,25.91
2022-10-26T14:07:35.163Z,25.51
2022-10-26T14:10:03.450Z,25.92
2022-10-26T14:12:33.988Z,25.22
2022-10-26T14:15:06.904Z,25.82
2022-10-26T14:17:35.939Z,25.42
2022-10-26T14:20:05.839Z,25.64
2022-10-26T14:22:33.987Z,25.88
2022-10-26T14:25:02.441Z,24.89
2022-10-26T14:27:33.105Z,24.44
2022-10-26T14:30:21.688Z,24.07
2022-10-26T14:32:51.376Z,23.55
2022-10-26T14:35:25.473Z,23.41
2022-10-26T14:37:54.846Z,23.25
2022-10-26T14:40:24.700Z,23.18
2022-10-26T14:42:54.811Z,22.51
2022-10-26T14:45:48.159Z,21.94
2022-10-26T14:48:24.718Z,21.78
2022-10-26T14:51:04.695Z,21.64
2022-10-26T14:53:35.704Z,21.05
2022-10-26T14:56:04.603Z,20.98
2022-10-26T14:58:33.712Z,20.88
2022-10-26T15:01:38.180Z,20.71
2022-10-26T15:04:33.591Z,20.45
2022-10-26T15:07:17.205Z,20.33
2022-10-26T15:09:46.089Z,20.16
2022-10-26T15:12:21.593Z,20.04
2022-10-26T15:14:50.681Z,19.99
2022-10-26T15:17:22.040Z,19.88
2022-10-26T15:19:50.519Z,19.79
2022-10-26T15:22:24.098Z,19.66
2022-10-26T15:24:54.566Z,19.57
2022-10-26T15:27:23.236Z,19.48
2022-10-26T15:29:52.166Z,19.46
2022-10-26T15:32:29.877Z,19.41
2022-10-26T15:35:13.174Z,19.30
2022-10-26T15:37:42.997Z,19.25
2022-10-26T15:40:11.411Z,19.21
2022-10-26T15:42:40.226Z,19.05
2022-10-26T15:45:39.793Z,19.00
2022-10-26T15:48:20.799Z,18.89
2022-10-26T15:50:48.890Z,18.78
2022-10-26T15:53:20.444Z,18.66
2022-10-26T15:55:48.713Z,18.57
2022-10-26T15:58:17.561Z,18.41
2022-10-26T16:00:48.346Z,18.27
2022-10-26T16:03:18.582Z,18.14
2022-10-26T16:05:46.838Z,18.02
2022-10-26T16:08:18.041Z,17.86
2022-10-26T16:10:48.596Z,17.72
2022-10-26T16:13:16.616Z,17.66
2022-10-26T16:15:44.686Z,17.61
2022-10-26T16:18:12.540Z,17.44
2022-10-26T16:20:40.704Z,17.43
2022-10-26T16:23:08.808Z,17.35
2022-10-26T16:25:41.570Z,17.16
2022-10-26T16:28:11.856Z,16.97
2022-10-26T16:33:08.664Z,16.69
2022-10-26T16:35:36.593Z,16.53
2022-10-26T16:38:04.476Z,16.40
2022-10-26T16:40:38.461Z,16.32
2022-10-26T16:43:06.471Z,16.23
2022-10-26T16:45:35.895Z,16.14
2022-10-26T16:48:06.922Z,16.05
2022-10-26T16:50:36.503Z,15.97
2022-10-26T16:53:04.552Z,15.93
2022-10-26T16:55:32.559Z,16.06
2022-10-26T16:58:00.475Z,16.01
2022-10-26T17:00:28.293Z,15.98
2022-10-26T17:02:57.681Z,15.98
2022-10-26T17:05:25.625Z,16.06
2022-10-26T17:07:53.673Z,16.09
2022-10-26T17:10:21.698Z,16.06
2022-10-26T17:12:49.995Z,16.09
2022-10-26T17:15:19.951Z,16.05
2022-10-26T17:17:49.371Z,16.09
2022-10-26T17:20:18.549Z,16.03
2022-10-26T17:22:46.444Z,16.00
2022-10-26T17:25:14.544Z,15.95
2022-10-26T17:27:46.395Z,15.87
2022-10-26T17:30:15.762Z,15.90
2022-10-26T17:32:43.927Z,15.90
2022-10-26T17:35:11.822Z,15.87
2022-10-26T17:37:41.357Z,15.86
2022-10-26T17:40:09.807Z,15.79
2022-10-26T17:42:37.657Z,15.81
2022-10-26T17:45:05.954Z,15.74
2022-10-26T17:47:33.783Z,15.84
2022-10-26T17:50:03.365Z,15.85
2022-10-26T17:52:31.293Z,15.76
2022-10-26T17:55:02.652Z,15.77
2022-10-26T17:57:31.127Z,15.66
2022-10-26T17:59:58.973Z,15.63
2022-10-26T18:02:27.325Z,15.66
2022-10-26T18:04:55.856Z,15.58
2022-10-26T18:07:23.649Z,15.55
2022-10-26T18:09:51.690Z,15.48
2022-10-26T18:12:20.873Z,15.49
2022-10-26T18:14:48.917Z,15.50
2022-10-26T18:17:16.814Z,15.38
2022-10-26T18:19:44.681Z,15.27
2022-10-26T18:22:12.740Z,15.32
2022-10-26T18:24:40.654Z,15.21
2022-10-26T18:27:08.500Z,15.17
2022-10-26T18:29:39.748Z,15.27
2022-10-26T18:32:08.048Z,15.19
2022-10-26T18:34:35.869Z,15.02
2022-10-26T18:37:03.709Z,14.94
2022-10-26T18:39:31.606Z,14.90
2022-10-26T18:41:59.560Z,14.86
2022-10-26T18:44:27.675Z,14.85
2022-10-26T18:46:56.912Z,14.82
2022-10-26T18:49:25.976Z,14.80
2022-10-26T18:51:53.865Z,14.74
2022-10-26T18:54:21.905Z,14.64
2022-10-26T18:56:49.901Z,14.61
2022-10-26T18:59:17.772Z,14.59
2022-10-26T19:01:47.170Z,14.57
2022-10-26T19:04:16.549Z,14.56
2022-10-26T19:06:47.216Z,14.50
2022-10-26T19:09:15.814Z,14.39
2022-10-26T19:11:43.632Z,14.33
2022-10-26T19:14:12.339Z,14.21
2022-10-26T19:16:48.194Z,14.20
2022-10-26T19:19:18.084Z,14.09
2022-10-26T19:21:46.280Z,14.04
2022-10-26T19:24:15.080Z,14.05
2022-10-26T19:26:44.075Z,13.99
2022-10-26T19:29:14.407Z,13.95
2022-10-26T19:31:42.580Z,13.91
2022-10-26T19:34:10.993Z,13.82
2022-10-26T19:36:44.039Z,13.75
2022-10-26T19:39:12.155Z,13.65
2022-10-26T19:41:40.055Z,13.57
2022-10-26T19:44:08.377Z,13.60
2022-10-26T19:46:36.204Z,13.50
2022-10-26T19:49:04.392Z,13.43
2022-10-26T19:51:33.058Z,13.44
2022-10-26T19:54:04.059Z,13.42
2022-10-26T19:56:32.822Z,13.30
2022-10-26T19:59:01.508Z,13.24
2022-10-26T20:01:29.622Z,13.24
2022-10-26T20:03:57.622Z,13.30
2022-10-26T20:06:25.617Z,13.21
2022-10-26T20:08:53.716Z,13.15
2022-10-26T20:11:23.061Z,13.13
2022-10-26T20:13:51.113Z,13.06
2022-10-26T20:16:19.071Z,13.01
2022-10-26T20:18:48.882Z,13.00
2022-10-26T20:21:17.931Z,12.93
2022-10-26T20:23:46.027Z,12.90
2022-10-26T20:26:18.418Z,12.92
2022-10-26T20:28:50.788Z,12.84
2022-10-26T20:31:19.411Z,12.79
2022-10-26T20:33:50.079Z,12.80
2022-10-26T20:36:18.271Z,12.71
2022-10-26T20:38:46.522Z,12.68
2022-10-26T20:41:15.181Z,12.71
2022-10-26T20:43:43.700Z,12.62
2022-10-26T20:46:18.387Z,12.65
2022-10-26T20:48:46.822Z,12.63
2022-10-26T20:51:17.248Z,12.61
2022-10-26T20:53:51.141Z,12.58
2022-10-26T20:56:22.873Z,12.58
2022-10-26T20:58:52.617Z,12.54
2022-10-26T21:01:24.662Z,12.54
2022-10-26T21:03:52.779Z,12.46
2022-10-26T21:06:20.992Z,12.42
2022-10-26T21:08:49.199Z,12.41
2022-10-26T21:11:17.041Z,12.44
2022-10-26T21:13:45.465Z,12.46
2022-10-26T21:16:14.067Z,12.35
2022-10-26T21:18:43.333Z,12.33
2022-10-26T21:21:11.577Z,12.29
2022-10-26T21:23:40.375Z,12.26
2022-10-26T21:26:08.313Z,12.24
2022-10-26T21:28:36.963Z,12.18
2022-10-26T21:31:06.034Z,12.19
2022-10-26T21:33:34.417Z,12.17
2022-10-26T21:36:04.845Z,12.25
2022-10-26T21:38:33.510Z,12.29
2022-10-26T21:41:05.163Z,12.14
2022-10-26T21:43:33.310Z,12.13
2022-10-26T21:46:04.692Z,12.04
2022-10-26T21:48:33.526Z,12.04
2022-10-26T21:51:03.479Z,12.09
2022-10-26T21:53:31.389Z,12.01
2022-10-26T21:56:02.603Z,11.92
2022-10-26T21:58:30.895Z,11.96
2022-10-26T22:01:04.969Z,11.89
2022-10-26T22:03:33.156Z,11.91
2022-10-26T22:06:01.098Z,11.85
2022-10-26T22:08:30.635Z,11.82
2022-10-26T22:10:58.690Z,11.80
2022-10-26T22:13:26.663Z,11.86
2022-10-26T22:16:02.000Z,11.86
2022-10-26T22:18:30.114Z,11.75
2022-10-26T22:20:58.813Z,11.74
2022-10-26T22:23:27.036Z,11.78
2022-10-26T22:26:01.579Z,11.80
2022-10-26T22:28:32.055Z,11.85
2022-10-26T22:31:04.156Z,11.95
2022-10-26T22:33:32.272Z,12.06
2022-10-26T22:36:04.574Z,12.16
2022-10-26T22:38:32.640Z,12.30
2022-10-26T22:41:01.905Z,12.58
2022-10-26T22:43:30.123Z,12.56
2022-10-26T22:46:01.676Z,12.55
2022-10-26T22:48:30.078Z,12.58
2022-10-26T22:50:58.106Z,12.58
2022-10-26T22:53:26.319Z,12.60
2022-10-26T22:55:54.161Z,12.65
2022-10-26T22:58:23.388Z,12.68
2022-10-26T23:00:51.498Z,12.71
2022-10-26T23:03:19.465Z,12.68
2022-10-26T23:05:47.712Z,12.70
2022-10-26T23:08:15.811Z,12.68
2022-10-26T23:10:43.720Z,12.61
2022-10-26T23:13:11.962Z,12.53
2022-10-26T23:15:41.168Z,12.45
2022-10-26T23:18:09.013Z,12.34
2022-10-26T23:20:37.037Z,12.22
2022-10-26T23:23:04.908Z,12.18
2022-10-26T23:25:32.978Z,12.14
2022-10-26T23:28:00.922Z,12.06
2022-10-26T23:30:28.847Z,11.99
2022-10-26T23:32:58.146Z,11.94
2022-10-26T23:35:26.083Z,11.90
2022-10-26T23:37:54.200Z,11.90
2022-10-26T23:40:22.123Z,11.97
2022-10-26T23:42:50.359Z,11.94
2022-10-26T23:45:18.599Z,11.92
2022-10-26T23:47:46.665Z,11.94
2022-10-26T23:50:16.789Z,11.98
2022-10-26T23:52:47.276Z,11.98
2022-10-26T23:55:15.761Z,12.07
2022-10-26T23:57:44.053Z,12.11
